Time;durP1;ratioP1;P1;durP2;ratioP2;P2;SDS_P1;SDS_P2;PMS_P1;PMS_P2;Temp;Humidity;BMP_temperature;BMP_pressure;BME280_temperature;BME280_humidity;BME280_pressure;Samples;Min_cycle;Max_cycle;Signal;HPM_P1;HPM_P2
2023/02/03 00:01:00;;;;;;;2.17;1.23;;;;;;;;;;5046980;28;20053;-71
2023/02/03 00:03:27;;;;;;;1.27;0.80;;;;;;;;;;5047223;28;20433;-70
2023/02/03 00:05:53;;;;;;;1.60;0.85;;;;;;;;;;5047141;28;20206;-69
2023/02/03 00:08:19;;;;;;;1.40;0.93;;;;;;;;;;5046817;28;20508;-69
2023/02/03 00:10:46;;;;;;;1.02;0.88;;;;;;;;;;5046837;28;20516;-70
2023/02/03 00:13:12;;;;;;;1.00;0.80;;;;;;;;;;5046857;28;20116;-69
2023/02/03 00:15:38;;;;;;;2.38;0.90;;;;;;;;;;5047077;28;20017;-70
2023/02/03 00:18:04;;;;;;;1.38;1.02;;;;;;;;;;5046941;28;20425;-71
2023/02/03 00:20:30;;;;;;;2.00;1.00;;;;;;;;;;5031700;28;20025;-69
2023/02/03 00:23:02;;;;;;;0.90;0.60;;;;;;;;;;5026881;28;20486;-70
2023/02/03 00:25:28;;;;;;;2.08;1.20;;;;;;;;;;5027090;28;20055;-70
2023/02/03 00:27:54;;;;;;;2.63;0.95;;;;;;;;;;5028555;28;20025;-70
2023/02/03 00:30:20;;;;;;;1.85;0.95;;;;;;;;;;5046656;28;20097;-70
2023/02/03 00:32:46;;;;;;;4.35;0.80;;;;;;;;;;5046996;28;20044;-70
2023/02/03 00:35:12;;;;;;;1.90;1.30;;;;;;;;;;5046460;28;20037;-69
2023/02/03 00:37:38;;;;;;;1.77;1.10;;;;;;;;;;5046758;28;20025;-69
2023/02/03 00:40:04;;;;;;;1.38;0.93;;;;;;;;;;5046477;28;20021;-70
2023/02/03 00:42:30;;;;;;;2.53;1.02;;;;;;;;;;5046768;28;20055;-69
2023/02/03 00:44:56;;;;;;;1.17;0.98;;;;;;;;;;5046433;28;20055;-69
2023/02/03 00:47:22;;;;;;;2.13;0.85;;;;;;;;;;5046541;28;20024;-70
2023/02/03 00:49:49;;;;;;;1.60;0.93;;;;;;;;;;5046636;28;20067;-70
2023/02/03 00:52:15;;;;;;;1.30;0.98;;;;;;;;;;5046336;28;20118;-70
2023/02/03 00:54:41;;;;;;;1.02;0.77;;;;;;;;;;5046718;28;20029;-69
2023/02/03 00:57:07;;;;;;;1.38;0.80;;;;;;;;;;5046270;28;20045;-69
2023/02/03 00:59:33;;;;;;;1.10;0.93;;;;;;;;;;5045957;28;20021;-69
2023/02/03 01:01:59;;;;;;;2.28;1.05;;;;;;;;;;5046811;28;20231;-69
2023/02/03 01:04:25;;;;;;;2.92;1.00;;;;;;;;;;5046300;28;20047;-69
2023/02/03 01:06:55;;;;;;;1.15;0.90;;;;;;;;;;5046545;28;20473;-69
2023/02/03 01:09:20;;;;;;;1.40;0.80;;;;;;;;;;5046549;28;20483;-70
2023/02/03 01:11:46;;;;;;;1.88;1.13;;;;;;;;;;5046405;28;20021;-70
2023/02/03 01:14:12;;;;;;;1.40;0.80;;;;;;;;;;5046078;28;20043;-70
2023/02/03 01:16:39;;;;;;;0.80;0.80;;;;;;;;;;5046586;28;20025;-70
2023/02/03 01:19:05;;;;;;;1.25;1.02;;;;;;;;;;5042691;28;20026;-70
2023/02/03 01:21:31;;;;;;;1.17;0.80;;;;;;;;;;5028586;28;20111;-70
2023/02/03 01:23:58;;;;;;;1.98;1.00;;;;;;;;;;5030329;28;20420;-69
2023/02/03 01:26:24;;;;;;;1.27;0.80;;;;;;;;;;5025762;28;20576;-69
2023/02/03 01:28:53;;;;;;;1.52;0.80;;;;;;;;;;5044932;28;20125;-70
2023/02/03 01:31:21;;;;;;;0.70;0.70;;;;;;;;;;5049952;28;20426;-70
2023/02/03 01:33:47;;;;;;;1.52;0.88;;;;;;;;;;5050335;28;20095;-69
2023/02/03 01:36:14;;;;;;;3.13;0.75;;;;;;;;;;5049842;28;20025;-69
2023/02/03 01:38:40;;;;;;;1.25;0.90;;;;;;;;;;5050039;28;20020;-70
2023/02/03 01:41:07;;;;;;;1.30;0.65;;;;;;;;;;5049909;28;20538;-70
2023/02/03 01:43:34;;;;;;;1.23;0.90;;;;;;;;;;5049979;28;20025;-69
2023/02/03 01:46:02;;;;;;;1.52;1.10;;;;;;;;;;5049921;28;20017;-69
2023/02/03 01:48:29;;;;;;;1.55;0.80;;;;;;;;;;5049715;28;20431;-69
2023/02/03 01:50:55;;;;;;;0.88;0.70;;;;;;;;;;5049619;28;20143;-69
2023/02/03 01:53:21;;;;;;;1.33;1.23;;;;;;;;;;5049692;28;20116;-69
2023/02/03 01:55:48;;;;;;;1.00;0.80;;;;;;;;;;5049724;28;20037;-69
2023/02/03 01:58:20;;;;;;;1.08;0.98;;;;;;;;;;5049362;28;20440;-70
2023/02/03 02:00:47;;;;;;;1.23;0.82;;;;;;;;;;5049489;28;20049;-69
2023/02/03 02:03:14;;;;;;;1.13;0.93;;;;;;;;;;5049252;28;20025;-69
2023/02/03 02:05:46;;;;;;;0.75;0.75;;;;;;;;;;5049635;28;20352;-69
2023/02/03 02:08:13;;;;;;;1.30;0.90;;;;;;;;;;5049225;28;20062;-69
2023/02/03 02:10:39;;;;;;;1.13;0.80;;;;;;;;;;5049454;28;20029;-70
2023/02/03 02:13:05;;;;;;;1.27;1.02;;;;;;;;;;5049422;28;20040;-69
2023/02/03 02:15:48;;;;;;;1.33;0.73;;;;;;;;;;5049135;28;20021;-68
2023/02/03 02:18:17;;;;;;;0.73;0.57;;;;;;;;;;5049222;28;20489;-69
2023/02/03 02:20:59;;;;;;;0.85;0.82;;;;;;;;;;5031776;28;20470;-68
2023/02/03 02:23:33;;;;;;;1.35;0.70;;;;;;;;;;5029023;28;20430;-70
2023/02/03 02:26:18;;;;;;;1.02;0.80;;;;;;;;;;5027751;28;20482;-69
2023/02/03 02:29:00;;;;;;;0.82;0.63;;;;;;;;;;5041459;28;20039;-69
2023/02/03 02:31:43;;;;;;;2.60;0.70;;;;;;;;;;5048761;28;20462;-70
2023/02/03 02:34:15;;;;;;;0.93;0.70;;;;;;;;;;5048828;28;20044;-70
2023/02/03 02:37:00;;;;;;;0.98;0.70;;;;;;;;;;5048881;28;20090;-69
2023/02/03 02:39:49;;;;;;;1.10;0.80;;;;;;;;;;5048871;28;20486;-69
2023/02/03 02:42:23;;;;;;;0.93;0.60;;;;;;;;;;5011354;28;20029;-70
2023/02/03 02:44:51;;;;;;;0.95;0.60;;;;;;;;;;5048858;28;20029;-69
2023/02/03 02:47:19;;;;;;;1.00;0.70;;;;;;;;;;5048847;28;20037;-69
2023/02/03 02:49:52;;;;;;;1.85;0.73;;;;;;;;;;5048924;28;20379;-70
2023/02/03 02:52:20;;;;;;;0.70;0.70;;;;;;;;;;5048678;28;20473;-70
2023/02/03 02:54:49;;;;;;;1.13;0.70;;;;;;;;;;5048689;28;20036;-69
2023/02/03 02:57:16;;;;;;;0.75;0.70;;;;;;;;;;5048482;28;20021;-69
2023/02/03 02:59:42;;;;;;;0.70;0.70;;;;;;;;;;5048378;28;20033;-70
2023/02/03 03:02:10;;;;;;;0.90;0.80;;;;;;;;;;5048702;28;20033;-69
2023/02/03 03:04:36;;;;;;;0.98;0.60;;;;;;;;;;5048492;28;20025;-69
2023/02/03 03:07:11;;;;;;;0.80;0.68;;;;;;;;;;5048444;28;20043;-69
2023/02/03 03:09:42;;;;;;;1.13;0.60;;;;;;;;;;5048113;28;20627;-69
2023/02/03 03:12:08;;;;;;;;;;;;;;;;;;5048744;28;20039;-69
2023/02/03 03:14:35;;;;;;;0.95;0.80;;;;;;;;;;5048014;28;19996;-70
2023/02/03 03:17:04;;;;;;;1.48;0.90;;;;;;;;;;5048392;28;20461;-70
2023/02/03 03:19:32;;;;;;;0.93;0.57;;;;;;;;;;5040888;28;20068;-70
2023/02/03 03:22:00;;;;;;;0.60;0.60;;;;;;;;;;5028430;28;20385;-70
2023/02/03 03:24:29;;;;;;;1.65;0.90;;;;;;;;;;5028042;28;20026;-69
2023/02/03 03:27:02;;;;;;;1.25;0.80;;;;;;;;;;5021275;28;20030;-70
2023/02/03 03:29:34;;;;;;;1.00;0.73;;;;;;;;;;5047876;28;20074;-70
2023/02/03 03:32:00;;;;;;;1.25;0.50;;;;;;;;;;5047920;28;20029;-69
2023/02/03 03:34:26;;;;;;;1.65;0.70;;;;;;;;;;5047739;28;20401;-69
2023/02/03 03:37:11;;;;;;;1.13;0.50;;;;;;;;;;5047914;28;20025;-69
2023/02/03 03:39:49;;;;;;;1.02;0.52;;;;;;;;;;5047434;28;20435;-69
2023/02/03 03:42:20;;;;;;;0.60;0.60;;;;;;;;;;5047540;28;20029;-69
2023/02/03 03:44:52;;;;;;;0.70;0.70;;;;;;;;;;5047043;28;20147;-70
2023/02/03 03:47:23;;;;;;;1.50;0.50;;;;;;;;;;5047432;28;20033;-69
2023/02/03 03:49:50;;;;;;;1.73;0.80;;;;;;;;;;5047609;28;20036;-69
2023/02/03 03:52:19;;;;;;;0.85;0.60;;;;;;;;;;5047421;28;20035;-69
2023/02/03 03:54:46;;;;;;;0.70;0.70;;;;;;;;;;5047410;28;20033;-69
2023/02/03 03:57:18;;;;;;;0.77;0.60;;;;;;;;;;5047533;28;20082;-70
2023/02/03 03:59:46;;;;;;;0.68;0.60;;;;;;;;;;5047081;28;20035;-70
2023/02/03 04:02:12;;;;;;;0.70;0.60;;;;;;;;;;5047305;28;20425;-69
2023/02/03 04:04:39;;;;;;;0.65;0.40;;;;;;;;;;5047208;28;20050;-69
2023/02/03 04:07:05;;;;;;;1.15;0.60;;;;;;;;;;5047576;28;20021;-69
2023/02/03 04:09:31;;;;;;;0.50;0.50;;;;;;;;;;5047066;28;20266;-70
2023/02/03 04:12:00;;;;;;;2.15;0.88;;;;;;;;;;5047236;28;20131;-70
2023/02/03 04:14:27;;;;;;;0.43;0.40;;;;;;;;;;5047059;28;20035;-69
2023/02/03 04:16:53;;;;;;;0.45;0.45;;;;;;;;;;5047343;28;20028;-70
2023/02/03 04:19:18;;;;;;;0.50;0.50;;;;;;;;;;5041738;28;20026;-70
2023/02/03 04:21:44;;;;;;;0.40;0.38;;;;;;;;;;5027403;28;20037;-69
2023/02/03 04:24:10;;;;;;;1.00;0.50;;;;;;;;;;5026959;28;20043;-70
2023/02/03 04:26:37;;;;;;;0.50;0.50;;;;;;;;;;5020486;28;20044;-69
2023/02/03 04:29:03;;;;;;;0.30;0.30;;;;;;;;;;5045802;28;20023;-69
2023/02/03 04:31:29;;;;;;;0.70;0.70;;;;;;;;;;5046839;28;20028;-69
2023/02/03 04:33:55;;;;;;;0.57;0.47;;;;;;;;;;5046621;28;20028;-69
2023/02/03 04:36:21;;;;;;;0.28;0.28;;;;;;;;;;5046787;28;20036;-70
2023/02/03 04:38:48;;;;;;;0.63;0.60;;;;;;;;;;5046723;28;20055;-70
2023/02/03 04:41:14;;;;;;;0.40;0.40;;;;;;;;;;5046502;28;20025;-70
2023/02/03 04:43:40;;;;;;;0.45;0.45;;;;;;;;;;5046659;28;20032;-70
2023/02/03 04:46:06;;;;;;;0.68;0.63;;;;;;;;;;5046674;28;20028;-70
2023/02/03 04:48:32;;;;;;;0.73;0.60;;;;;;;;;;5046459;28;20025;-69
2023/02/03 04:51:02;;;;;;;0.70;0.60;;;;;;;;;;5046850;28;20158;-70
2023/02/03 04:53:28;;;;;;;1.15;0.60;;;;;;;;;;5046602;28;20036;-69
2023/02/03 04:55:54;;;;;;;0.50;0.45;;;;;;;;;;5046395;28;20115;-70
2023/02/03 04:58:20;;;;;;;0.57;0.57;;;;;;;;;;5046142;28;20021;-71
2023/02/03 05:00:46;;;;;;;0.70;0.70;;;;;;;;;;5046389;28;20056;-70
2023/02/03 05:03:11;;;;;;;1.00;0.60;;;;;;;;;;5046355;28;20033;-70
2023/02/03 05:05:37;;;;;;;0.60;0.40;;;;;;;;;;5046455;28;20028;-70
2023/02/03 05:08:03;;;;;;;0.47;0.40;;;;;;;;;;5046486;28;20025;-70
2023/02/03 05:10:29;;;;;;;0.50;0.50;;;;;;;;;;5046221;28;20045;-70
2023/02/03 05:12:55;;;;;;;0.45;0.43;;;;;;;;;;5046572;28;20031;-70
2023/02/03 05:15:21;;;;;;;0.50;0.50;;;;;;;;;;5046154;28;20043;-70
2023/02/03 05:17:47;;;;;;;0.43;0.43;;;;;;;;;;5046589;28;20358;-70
2023/02/03 05:20:13;;;;;;;0.80;0.50;;;;;;;;;;5033221;28;20037;-71
2023/02/03 05:22:39;;;;;;;0.80;0.60;;;;;;;;;;5026337;28;20386;-70
2023/02/03 05:25:05;;;;;;;0.50;0.50;;;;;;;;;;5026192;28;20022;-70
2023/02/03 05:27:31;;;;;;;0.45;0.45;;;;;;;;;;5024221;28;20032;-70
2023/02/03 05:29:57;;;;;;;0.75;0.70;;;;;;;;;;5046494;28;20033;-70
2023/02/03 05:32:23;;;;;;;0.50;0.50;;;;;;;;;;5046423;28;20373;-71
2023/02/03 05:34:49;;;;;;;1.08;0.50;;;;;;;;;;5046390;28;20029;-70
2023/02/03 05:37:15;;;;;;;1.13;0.80;;;;;;;;;;5046211;28;20538;-69
2023/02/03 05:39:41;;;;;;;0.90;0.75;;;;;;;;;;5045942;28;20401;-71
2023/02/03 05:42:07;;;;;;;0.82;0.70;;;;;;;;;;5046074;28;20393;-70
2023/02/03 05:44:33;;;;;;;0.57;0.57;;;;;;;;;;5045925;28;20057;-70
2023/02/03 05:46:59;;;;;;;0.60;0.57;;;;;;;;;;5046155;28;20036;-70
2023/02/03 05:49:25;;;;;;;0.50;0.43;;;;;;;;;;5045865;28;20033;-69
2023/02/03 05:51:52;;;;;;;0.85;0.57;;;;;;;;;;5045988;28;20032;-70
2023/02/03 05:54:18;;;;;;;1.02;0.65;;;;;;;;;;5045951;28;20593;-70
2023/02/03 05:56:44;;;;;;;1.00;1.00;;;;;;;;;;5046070;28;20021;-70
2023/02/03 05:59:10;;;;;;;0.50;0.50;;;;;;;;;;5045972;28;20327;-70
2023/02/03 06:01:36;;;;;;;0.50;0.50;;;;;;;;;;5045446;28;20045;-70
2023/02/03 06:04:02;;;;;;;0.95;0.60;;;;;;;;;;5045986;28;20025;-70
2023/02/03 06:06:32;;;;;;;0.65;0.65;;;;;;;;;;5045917;28;20031;-70
2023/02/03 06:09:02;;;;;;;0.70;0.70;;;;;;;;;;5049524;28;20425;-70
2023/02/03 06:11:28;;;;;;;1.02;0.73;;;;;;;;;;5049503;28;20021;-70
2023/02/03 06:13:57;;;;;;;0.82;0.50;;;;;;;;;;5049355;28;20075;-70
2023/02/03 06:16:23;;;;;;;0.80;0.60;;;;;;;;;;5049234;28;20021;-70
2023/02/03 06:18:50;;;;;;;1.13;0.73;;;;;;;;;;5048172;28;20084;-70
2023/02/03 06:21:15;;;;;;;1.38;0.45;;;;;;;;;;5029357;28;20029;-70
2023/02/03 06:23:41;;;;;;;0.70;0.70;;;;;;;;;;5029129;28;20027;-70
2023/02/03 06:26:07;;;;;;;0.60;0.60;;;;;;;;;;5026676;28;20029;-70
2023/02/03 06:28:33;;;;;;;0.90;0.70;;;;;;;;;;5038415;28;20059;-70
2023/02/03 06:30:59;;;;;;;1.20;0.80;;;;;;;;;;5049175;28;20028;-70
2023/02/03 06:33:25;;;;;;;0.77;0.75;;;;;;;;;;5048712;28;20028;-70
2023/02/03 06:35:53;;;;;;;0.80;0.60;;;;;;;;;;5048930;28;20507;-70
2023/02/03 06:38:19;;;;;;;1.40;0.93;;;;;;;;;;5049066;28;20029;-70
2023/02/03 06:40:48;;;;;;;1.05;0.63;;;;;;;;;;5048720;28;20039;-70
2023/02/03 06:43:14;;;;;;;0.98;0.75;;;;;;;;;;5048512;28;20488;-71
2023/02/03 06:45:40;;;;;;;1.00;0.80;;;;;;;;;;5048686;28;20028;-70
2023/02/03 06:48:07;;;;;;;0.85;0.80;;;;;;;;;;5048625;28;20561;-70
2023/02/03 06:50:33;;;;;;;0.75;0.68;;;;;;;;;;5048725;28;20074;-70
2023/02/03 06:52:59;;;;;;;0.52;0.52;;;;;;;;;;5048670;28;20529;-69
2023/02/03 06:55:25;;;;;;;0.90;0.80;;;;;;;;;;5048488;28;20712;-69
2023/02/03 06:57:51;;;;;;;1.25;0.80;;;;;;;;;;5048534;28;20494;-69
2023/02/03 07:00:18;;;;;;;0.98;0.68;;;;;;;;;;5048204;28;20504;-69
2023/02/03 07:02:44;;;;;;;0.70;0.55;;;;;;;;;;5048388;28;20033;-69
2023/02/03 07:05:10;;;;;;;1.95;0.80;;;;;;;;;;5048539;28;20066;-70
2023/02/03 07:07:38;;;;;;;0.80;0.57;;;;;;;;;;5048377;28;20095;-69
2023/02/03 07:10:04;;;;;;;0.73;0.73;;;;;;;;;;5048456;28;20453;-69
2023/02/03 07:12:31;;;;;;;0.70;0.70;;;;;;;;;;5048194;28;20021;-70
2023/02/03 07:14:57;;;;;;;0.70;0.70;;;;;;;;;;5048332;28;20440;-68
2023/02/03 07:17:23;;;;;;;0.85;0.70;;;;;;;;;;5047785;28;20033;-69
2023/02/03 07:19:49;;;;;;;0.55;0.55;;;;;;;;;;5037606;28;20033;-68
2023/02/03 07:22:15;;;;;;;0.93;0.70;;;;;;;;;;5028296;28;20028;-69
2023/02/03 07:24:41;;;;;;;1.77;1.00;;;;;;;;;;5028126;28;20377;-68
2023/02/03 07:27:07;;;;;;;1.02;0.73;;;;;;;;;;5022270;28;20410;-70
2023/02/03 07:29:33;;;;;;;0.70;0.70;;;;;;;;;;5047955;28;20067;-69
2023/02/03 07:32:01;;;;;;;0.77;0.70;;;;;;;;;;5048038;28;20025;-68
2023/02/03 07:34:27;;;;;;;1.08;0.75;;;;;;;;;;5047654;28;20095;-69
2023/02/03 07:36:53;;;;;;;0.80;0.80;;;;;;;;;;5047996;28;20025;-69
2023/02/03 07:39:19;;;;;;;0.65;0.65;;;;;;;;;;5047792;28;20432;-69
2023/02/03 07:41:45;;;;;;;2.13;0.63;;;;;;;;;;5047345;28;20071;-69
2023/02/03 07:44:11;;;;;;;0.47;0.47;;;;;;;;;;5047658;28;20470;-70
2023/02/03 07:46:43;;;;;;;1.42;0.63;;;;;;;;;;5047582;28;20017;-69
2023/02/03 07:49:09;;;;;;;1.02;0.73;;;;;;;;;;5047637;28;20040;-69
2023/02/03 07:51:35;;;;;;;2.70;0.50;;;;;;;;;;5047387;28;20462;-70
2023/02/03 07:54:01;;;;;;;0.65;0.65;;;;;;;;;;5047497;28;20404;-69
2023/02/03 07:56:27;;;;;;;0.80;0.60;;;;;;;;;;5047098;28;20032;-69
2023/02/03 07:58:53;;;;;;;0.60;0.50;;;;;;;;;;5047558;28;20401;-70
2023/02/03 08:01:19;;;;;;;0.70;0.60;;;;;;;;;;5046896;28;20517;-69
2023/02/03 08:03:45;;;;;;;0.60;0.60;;;;;;;;;;5047203;28;20036;-69
2023/02/03 08:06:11;;;;;;;0.40;0.40;;;;;;;;;;5047245;28;20021;-69
2023/02/03 08:08:37;;;;;;;0.80;0.60;;;;;;;;;;5047378;28;20029;-70
2023/02/03 08:11:03;;;;;;;0.65;0.65;;;;;;;;;;5047370;28;20017;-70
2023/02/03 08:13:29;;;;;;;0.80;0.80;;;;;;;;;;5046768;28;20124;-69
2023/02/03 08:15:55;;;;;;;0.65;0.65;;;;;;;;;;5047373;28;20466;-70
2023/02/03 08:18:21;;;;;;;0.50;0.50;;;;;;;;;;5047264;28;20021;-70
2023/02/03 08:20:47;;;;;;;0.90;0.57;;;;;;;;;;5029337;28;20032;-69
2023/02/03 08:23:14;;;;;;;0.43;0.43;;;;;;;;;;5027034;28;20147;-70
2023/02/03 08:25:40;;;;;;;1.20;0.75;;;;;;;;;;5026930;28;20024;-70
2023/02/03 08:28:05;;;;;;;0.68;0.63;;;;;;;;;;5029505;28;20021;-70
2023/02/03 08:30:31;;;;;;;2.35;0.60;;;;;;;;;;5046383;28;20028;-70
2023/02/03 08:32:57;;;;;;;0.52;0.52;;;;;;;;;;5047064;28;20052;-70
2023/02/03 08:35:24;;;;;;;0.40;0.40;;;;;;;;;;5046807;28;20024;-69
2023/02/03 08:37:50;;;;;;;1.00;0.75;;;;;;;;;;5046725;28;20431;-70
2023/02/03 08:40:16;;;;;;;0.98;0.50;;;;;;;;;;5046794;28;20355;-70
2023/02/03 08:42:42;;;;;;;0.52;0.52;;;;;;;;;;5046866;28;20032;-70
2023/02/03 08:45:08;;;;;;;1.02;0.70;;;;;;;;;;5046499;28;20036;-70
2023/02/03 08:47:35;;;;;;;1.33;0.52;;;;;;;;;;5046594;28;20508;-70
2023/02/03 08:50:02;;;;;;;1.25;0.52;;;;;;;;;;5046805;28;20074;-70
2023/02/03 08:52:27;;;;;;;0.77;0.47;;;;;;;;;;5046416;28;20033;-71
2023/02/03 08:54:53;;;;;;;0.50;0.50;;;;;;;;;;5046514;28;20028;-70
2023/02/03 08:57:19;;;;;;;0.43;0.43;;;;;;;;;;5046510;28;20025;-70
2023/02/03 08:59:45;;;;;;;0.68;0.68;;;;;;;;;;5045835;28;20033;-69
2023/02/03 09:02:15;;;;;;;0.50;0.50;;;;;;;;;;5046567;28;20614;-70
2023/02/03 09:04:41;;;;;;;0.40;0.40;;;;;;;;;;5046359;28;20021;-70
2023/02/03 09:07:07;;;;;;;0.40;0.40;;;;;;;;;;5046517;28;20056;-70
2023/02/03 09:09:33;;;;;;;0.60;0.47;;;;;;;;;;5046202;28;20334;-69
2023/02/03 09:12:04;;;;;;;0.50;0.50;;;;;;;;;;5046590;28;20028;-69
2023/02/03 09:14:31;;;;;;;0.68;0.40;;;;;;;;;;5046514;28;20032;-70
2023/02/03 09:16:57;;;;;;;2.65;0.50;;;;;;;;;;5046568;28;20091;-70
2023/02/03 09:19:23;;;;;;;0.40;0.40;;;;;;;;;;5040219;28;20036;-70
2023/02/03 09:21:49;;;;;;;0.30;0.30;;;;;;;;;;5026256;28;20026;-70
2023/02/03 09:24:16;;;;;;;0.57;0.50;;;;;;;;;;5026385;28;20018;-69
2023/02/03 09:26:42;;;;;;;0.45;0.45;;;;;;;;;;5019043;28;20026;-70
2023/02/03 09:29:08;;;;;;;0.40;0.40;;;;;;;;;;5045272;28;20428;-70
2023/02/03 09:31:34;;;;;;;0.60;0.50;;;;;;;;;;5046079;28;20416;-70
2023/02/03 09:34:00;;;;;;;0.47;0.47;;;;;;;;;;5046523;28;20116;-70
2023/02/03 09:36:26;;;;;;;0.50;0.40;;;;;;;;;;5046288;28;20024;-69
2023/02/03 09:38:52;;;;;;;0.30;0.30;;;;;;;;;;5045992;28;20028;-70
2023/02/03 09:41:41;;;;;;;0.70;0.50;;;;;;;;;;5046500;28;20025;-70
2023/02/03 09:44:22;;;;;;;0.30;0.30;;;;;;;;;;5050242;28;20017;-69
2023/02/03 09:46:51;;;;;;;0.32;0.32;;;;;;;;;;5049701;28;20052;-70
2023/02/03 09:49:21;;;;;;;0.65;0.52;;;;;;;;;;5050217;28;20021;-70
2023/02/03 09:51:50;;;;;;;0.38;0.38;;;;;;;;;;5049416;28;20017;-70
2023/02/03 09:54:19;;;;;;;0.50;0.50;;;;;;;;;;5049913;28;20017;-70
2023/02/03 09:56:51;;;;;;;0.40;0.40;;;;;;;;;;5049537;28;20039;-70
2023/02/03 09:59:17;;;;;;;0.40;0.40;;;;;;;;;;5049648;28;20027;-70
2023/02/03 10:01:49;;;;;;;0.40;0.40;;;;;;;;;;5049412;28;20041;-69
2023/02/03 10:04:15;;;;;;;0.30;0.30;;;;;;;;;;5049709;28;20025;-70
2023/02/03 10:06:42;;;;;;;0.50;0.50;;;;;;;;;;5049548;28;20550;-70
2023/02/03 10:09:33;;;;;;;0.52;0.40;;;;;;;;;;5049497;28;20048;-70
2023/02/03 10:12:15;;;;;;;0.30;0.30;;;;;;;;;;5049645;28;20055;-70
2023/02/03 10:15:00;;;;;;;0.60;0.40;;;;;;;;;;5049406;28;20031;-69
2023/02/03 10:17:29;;;;;;;0.60;0.50;;;;;;;;;;5049179;28;20021;-70
2023/02/03 10:20:14;;;;;;;0.40;0.40;;;;;;;;;;5039127;28;20026;-70
2023/02/03 10:22:42;;;;;;;0.43;0.40;;;;;;;;;;5029035;28;20025;-70
2023/02/03 10:25:14;;;;;;;0.40;0.40;;;;;;;;;;5029315;28;20116;-70
2023/02/03 10:27:41;;;;;;;0.32;0.32;;;;;;;;;;5028023;28;20421;-70
2023/02/03 10:30:07;;;;;;;0.40;0.40;;;;;;;;;;5049085;28;20033;-69
2023/02/03 10:32:34;;;;;;;0.20;0.20;;;;;;;;;;5048932;28;20037;-70
2023/02/03 10:35:01;;;;;;;0.40;0.38;;;;;;;;;;5049150;28;20032;-70
2023/02/03 10:37:31;;;;;;;0.30;0.30;;;;;;;;;;5049127;28;20029;-70
2023/02/03 10:39:57;;;;;;;0.20;0.20;;;;;;;;;;5048822;28;20028;-70
2023/02/03 10:42:24;;;;;;;0.30;0.30;;;;;;;;;;5048967;28;20299;-70
2023/02/03 10:44:56;;;;;;;0.82;0.30;;;;;;;;;;5048607;28;20025;-70
2023/02/03 10:47:35;;;;;;;0.50;0.50;;;;;;;;;;5048935;28;20025;-70
2023/02/03 10:50:06;;;;;;;0.40;0.40;;;;;;;;;;5048876;28;20508;-71
2023/02/03 10:52:32;;;;;;;;;;;;;;;;;;5048837;28;20032;-70
2023/02/03 10:54:59;;;;;;;0.80;0.80;;;;;;;;;;5048686;28;20074;-70
2023/02/03 10:57:27;;;;;;;0.38;0.38;;;;;;;;;;5048424;28;20401;-70
2023/02/03 11:00:02;;;;;;;0.40;0.40;;;;;;;;;;5048469;28;20045;-70
2023/02/03 11:02:29;;;;;;;0.70;0.60;;;;;;;;;;5048393;28;20064;-70
2023/02/03 11:05:09;;;;;;;0.85;0.40;;;;;;;;;;5048776;28;20063;-70
2023/02/03 11:07:36;;;;;;;0.22;0.22;;;;;;;;;;5048044;28;20021;-70
2023/02/03 11:10:01;;;;;;;1.55;0.60;;;;;;;;;;5048429;28;20029;-70
2023/02/03 11:12:27;;;;;;;0.70;0.45;;;;;;;;;;5048228;28;20029;-70
2023/02/03 11:14:53;;;;;;;0.57;0.20;;;;;;;;;;5048333;28;20032;-70
2023/02/03 11:17:22;;;;;;;0.47;0.35;;;;;;;;;;5048234;28;20029;-70
2023/02/03 11:19:48;;;;;;;0.73;0.60;;;;;;;;;;5038601;28;20053;-69
2023/02/03 11:22:26;;;;;;;0.45;0.30;;;;;;;;;;5028255;28;20025;-70
2023/02/03 11:24:52;;;;;;;2.83;0.60;;;;;;;;;;5028280;28;20445;-70
2023/02/03 11:27:21;;;;;;;1.67;0.30;;;;;;;;;;5024838;28;20036;-70
2023/02/03 11:29:48;;;;;;;0.52;0.43;;;;;;;;;;5047907;28;20430;-69
2023/02/03 11:32:14;;;;;;;0.30;0.30;;;;;;;;;;5048011;28;20465;-70
2023/02/03 11:34:45;;;;;;;0.60;0.40;;;;;;;;;;5047685;28;20033;-70
2023/02/03 11:37:30;;;;;;;1.48;0.43;;;;;;;;;;5047827;28;20021;-70
2023/02/03 11:39:57;;;;;;;1.55;0.30;;;;;;;;;;5047723;28;20718;-70
2023/02/03 11:42:24;;;;;;;2.95;0.57;;;;;;;;;;5047808;28;20083;-69
2023/02/03 11:44:50;;;;;;;1.38;0.40;;;;;;;;;;5047448;28;20106;-70
2023/02/03 11:47:16;;;;;;;0.47;0.32;;;;;;;;;;5047908;28;20068;-70
2023/02/03 11:49:48;;;;;;;1.20;0.55;;;;;;;;;;5047267;28;20029;-70
2023/02/03 11:52:28;;;;;;;0.40;0.40;;;;;;;;;;5047693;28;20032;-70
2023/02/03 11:55:03;;;;;;;0.77;0.43;;;;;;;;;;5047359;28;20048;-70
2023/02/03 11:57:42;;;;;;;0.75;0.40;;;;;;;;;;5047640;28;20025;-70
2023/02/03 12:00:29;;;;;;;2.30;0.40;;;;;;;;;;5047007;28;20497;-70
2023/02/03 12:02:55;;;;;;;0.57;0.50;;;;;;;;;;5047472;28;20064;-70
2023/02/03 12:05:45;;;;;;;0.30;0.30;;;;;;;;;;5046801;28;20108;-70
2023/02/03 12:08:18;;;;;;;0.22;0.22;;;;;;;;;;5047341;28;20021;-70
2023/02/03 12:10:56;;;;;;;1.20;0.57;;;;;;;;;;5046964;28;20546;-70
2023/02/03 12:13:22;;;;;;;0.68;0.47;;;;;;;;;;5047177;28;20032;-70
2023/02/03 12:15:55;;;;;;;0.30;0.30;;;;;;;;;;5047173;28;20021;-70
2023/02/03 12:18:43;;;;;;;2.58;0.40;;;;;;;;;;5047368;28;20123;-70
2023/02/03 12:21:23;;;;;;;1.38;0.65;;;;;;;;;;5014316;28;20354;-70
2023/02/03 12:23:52;;;;;;;0.65;0.40;;;;;;;;;;5026738;28;20025;-70
2023/02/03 12:26:22;;;;;;;1.02;0.40;;;;;;;;;;5023261;28;20449;-70
2023/02/03 12:28:53;;;;;;;1.38;0.43;;;;;;;;;;5023749;28;20033;-70
2023/02/03 12:31:28;;;;;;;0.70;0.20;;;;;;;;;;5027176;28;20033;-69
2023/02/03 12:33:57;;;;;;;0.77;0.60;;;;;;;;;;5026725;28;20121;-70
2023/02/03 12:36:28;;;;;;;0.55;0.35;;;;;;;;;;5027157;28;20486;-70
2023/02/03 12:39:01;;;;;;;1.13;0.30;;;;;;;;;;5026797;28;20022;-70
2023/02/03 12:41:40;;;;;;;0.40;0.40;;;;;;;;;;5026878;28;20044;-70
2023/02/03 12:44:15;;;;;;;0.22;0.22;;;;;;;;;;5026930;28;20076;-70
2023/02/03 12:46:44;;;;;;;0.50;0.43;;;;;;;;;;5026650;28;20071;-70
2023/02/03 12:49:23;;;;;;;1.60;0.60;;;;;;;;;;5026615;28;20025;-70
2023/02/03 12:51:51;;;;;;;1.52;0.70;;;;;;;;;;5026330;28;20501;-70
2023/02/03 12:54:36;;;;;;;0.73;0.50;;;;;;;;;;5026701;28;20026;-70
2023/02/03 12:57:24;;;;;;;1.00;0.43;;;;;;;;;;5026594;28;20478;-70
2023/02/03 12:59:58;;;;;;;0.60;0.40;;;;;;;;;;5026032;28;20184;-69
2023/02/03 13:02:27;;;;;;;0.90;0.40;;;;;;;;;;5026643;28;20423;-70
2023/02/03 13:04:56;;;;;;;1.02;0.40;;;;;;;;;;5026405;28;20047;-70
2023/02/03 13:07:28;;;;;;;1.58;0.50;;;;;;;;;;5026428;28;20099;-69
2023/02/03 13:09:57;;;;;;;0.65;0.63;;;;;;;;;;5026621;28;20033;-70
2023/02/03 13:12:29;;;;;;;0.25;0.20;;;;;;;;;;5026340;28;20084;-70
2023/02/03 13:14:55;;;;;;;;;;;;;;;;;;5026923;28;20397;-70
2023/02/03 13:17:27;;;;;;;0.65;0.35;;;;;;;;;;5029691;28;19945;-70
2023/02/03 13:19:55;;;;;;;0.55;0.35;;;;;;;;;;5030110;28;20034;-70
2023/02/03 13:22:22;;;;;;;2.17;0.47;;;;;;;;;;5030526;28;20075;-70
2023/02/03 13:25:15;;;;;;;0.68;0.57;;;;;;;;;;5030070;28;20025;-70
2023/02/03 13:28:10;;;;;;;1.13;0.32;;;;;;;;;;5030336;28;20503;-70
2023/02/03 13:30:46;;;;;;;1.02;0.45;;;;;;;;;;5033062;28;20064;-69
2023/02/03 13:33:15;;;;;;;0.50;0.50;;;;;;;;;;5050240;28;20032;-70
2023/02/03 13:35:46;;;;;;;2.75;0.40;;;;;;;;;;5050310;28;20024;-70
2023/02/03 13:38:25;;;;;;;1.52;0.30;;;;;;;;;;5049963;28;20033;-70
2023/02/03 13:40:59;;;;;;;0.65;0.40;;;;;;;;;;5049923;28;20033;-70
2023/02/03 13:43:28;;;;;;;0.82;0.45;;;;;;;;;;5049778;28;20477;-71
2023/02/03 13:45:55;;;;;;;0.85;0.57;;;;;;;;;;5049773;28;20390;-70
2023/02/03 13:48:22;;;;;;;0.50;0.50;;;;;;;;;;5050141;28;20021;-70
2023/02/03 13:50:50;;;;;;;2.80;0.95;;;;;;;;;;5049734;28;20720;-69
2023/02/03 13:53:20;;;;;;;1.15;0.20;;;;;;;;;;5049672;28;20036;-70
2023/02/03 13:56:13;;;;;;;0.38;0.38;;;;;;;;;;5049200;28;20040;-70
2023/02/03 13:58:39;;;;;;;1.85;0.40;;;;;;;;;;5045915;28;20036;-70
2023/02/03 14:01:24;;;;;;;0.70;0.40;;;;;;;;;;5049370;28;20400;-70
2023/02/03 14:03:50;;;;;;;1.00;0.40;;;;;;;;;;5049746;28;20389;-70
2023/02/03 14:06:35;;;;;;;1.70;0.43;;;;;;;;;;5049498;28;20021;-69
2023/02/03 14:09:02;;;;;;;1.13;0.40;;;;;;;;;;5049387;28;20103;-70
2023/02/03 14:11:38;;;;;;;0.63;0.52;;;;;;;;;;5049283;28;20374;-70
2023/02/03 14:14:03;;;;;;;0.43;0.22;;;;;;;;;;5049294;28;20499;-70
2023/02/03 14:16:33;;;;;;;1.85;0.40;;;;;;;;;;5049415;28;20033;-70
2023/02/03 14:18:59;;;;;;;1.77;0.50;;;;;;;;;;5046935;28;20037;-70
2023/02/03 14:21:27;;;;;;;1.30;0.63;;;;;;;;;;5029219;28;20056;-69
2023/02/03 14:23:57;;;;;;;1.27;0.40;;;;;;;;;;5029030;28;20544;-69
2023/02/03 14:26:28;;;;;;;0.60;0.40;;;;;;;;;;5024819;28;20255;-70
2023/02/03 14:28:54;;;;;;;2.28;0.50;;;;;;;;;;5043518;28;20025;-70
2023/02/03 14:31:21;;;;;;;0.80;0.47;;;;;;;;;;5049136;28;20116;-70
2023/02/03 14:33:47;;;;;;;1.25;0.55;;;;;;;;;;5048719;28;20033;-70
2023/02/03 14:36:34;;;;;;;1.10;0.47;;;;;;;;;;5049606;28;20051;-71
2023/02/03 14:39:02;;;;;;;0.70;0.70;;;;;;;;;;5048723;28;20024;-71
2023/02/03 14:41:33;;;;;;;0.98;0.43;;;;;;;;;;5048753;28;20033;-70
2023/02/03 14:44:11;;;;;;;7.10;0.82;;;;;;;;;;5048867;28;20111;-69
2023/02/03 14:46:52;;;;;;;0.80;0.50;;;;;;;;;;5048931;28;20040;-70
2023/02/03 14:49:18;;;;;;;1.63;0.50;;;;;;;;;;5048926;28;20032;-70
2023/02/03 14:52:02;;;;;;;2.70;0.80;;;;;;;;;;5048364;28;20037;-69
2023/02/03 14:54:51;;;;;;;0.75;0.45;;;;;;;;;;5048953;28;20408;-69